DBBB/COO METAR and TAF weather

Enter ICAO airport designator
Station Type Date Time Source
DBBB METAR 2019/10/16 19:00 UTC NOAA

DBBB 161900Z 23007KT 200V260 9999 SCT012 SCT013 FEW022CB 27/25 Q1011 TEMPO TS BKN011 FEW020CB


Station Type Date Time Source
DBBB Decoded METAR 2019/10/16 19:00 UTC NOAA

Cotonou, Benin (DBBB) 06-21N 002-23E 9M
Oct 16, 2019 - 03:00 PM EDT / 2019.10.16 1900 UTC
Wind: from the SW (230 degrees) at 8 MPH (7 KT) (direction variable):0
Visibility: greater than 7 mile(s):0
Sky conditions: partly cloudy
Weather: Cumulonimbus clouds observed
Temperature: 80 F (27 C)
Dew Point: 77 F (25 C)
Relative Humidity: 88%
Pressure (altimeter): 29.85 in. Hg (1011 hPa)
ob: DBBB 161900Z 23007KT 200V260 9999 SCT012 SCT013 FEW022CB 27/25 Q1011 TEMPO TS BKN011 FEW020CB
cycle: 19

Station Type Date Time Source
DBBB TAF 2019/10/16 18:06 UTC NOAA

TAF TAF DBBB 161700Z 1618/1724 22010KT 9999 SCT012
TEMPO 1618/1622 TS BKN012 FEW023CB

Example: see airport list